Time;durP1;ratioP1;P1;durP2;ratioP2;P2;SDS_P1;SDS_P2;PMS_P1;PMS_P2;Temp;Humidity;BMP_temperature;BMP_pressure;BME280_temperature;BME280_humidity;BME280_pressure;Samples;Min_cycle;Max_cycle;Signal;HPM_P1;HPM_P2
2023/05/30 00:02:08;;;;;;;20.42;4.15;;;11.40;99.90;;;;;;4953280;28;20081;-72
2023/05/30 00:04:34;;;;;;;16.50;3.88;;;11.40;99.90;;;;;;4952774;29;20023;-72
2023/05/30 00:06:59;;;;;;;17.27;3.83;;;11.40;99.90;;;;;;4952682;29;20026;-72
2023/05/30 00:09:25;;;;;;;21.33;3.55;;;11.40;99.90;;;;;;4952920;29;20035;-73
2023/05/30 00:11:54;;;;;;;27.65;4.40;;;11.40;99.90;;;;;;4957010;29;20030;-72
2023/05/30 00:14:20;;;;;;;24.65;4.68;;;11.30;99.90;;;;;;4957136;28;20023;-72
2023/05/30 00:16:47;;;;;;;19.83;3.88;;;11.40;99.90;;;;;;4954786;28;20035;-72
2023/05/30 00:19:13;;;;;;;21.05;4.28;;;11.40;99.90;;;;;;4955972;28;20028;-72
2023/05/30 00:21:39;;;;;;;19.60;4.15;;;11.40;99.90;;;;;;4956499;28;20114;-72
2023/05/30 00:24:05;;;;;;;19.27;4.20;;;11.30;99.90;;;;;;4956622;28;20043;-73
2023/05/30 00:26:32;;;;;;;19.88;4.22;;;11.30;99.90;;;;;;4952357;29;20049;-73
2023/05/30 00:28:58;;;;;;;24.83;4.20;;;11.30;99.90;;;;;;4955099;28;20149;-72
2023/05/30 00:31:23;;;;;;;20.70;4.43;;;11.30;99.90;;;;;;4954883;29;20027;-72
2023/05/30 00:33:50;;;;;;;23.02;4.32;;;11.30;99.90;;;;;;4955027;28;20027;-72
2023/05/30 00:36:15;;;;;;;19.30;4.13;;;11.30;99.90;;;;;;4956403;29;20055;-73
2023/05/30 00:38:41;;;;;;;16.55;4.15;;;11.30;99.90;;;;;;4956179;28;20529;-73
2023/05/30 00:41:07;;;;;;;20.77;3.95;;;11.30;99.90;;;;;;4956044;28;20095;-72
2023/05/30 00:43:32;;;;;;;23.38;4.32;;;11.30;99.90;;;;;;4955674;28;20124;-72
2023/05/30 00:45:59;;;;;;;16.58;4.05;;;11.30;99.90;;;;;;4956103;29;20129;-72
2023/05/30 00:48:25;;;;;;;23.83;4.35;;;11.30;99.90;;;;;;4956132;28;20023;-73
2023/05/30 00:50:53;;;;;;;17.13;4.00;;;11.30;99.90;;;;;;4956916;29;20028;-73
2023/05/30 00:53:20;;;;;;;18.92;3.97;;;11.20;99.90;;;;;;4962233;28;20473;-73
2023/05/30 00:55:47;;;;;;;20.10;4.50;;;11.20;99.90;;;;;;4959740;29;20035;-73
2023/05/30 00:58:12;;;;;;;17.88;3.88;;;11.20;99.90;;;;;;4959996;28;20030;-73
2023/05/30 01:00:38;;;;;;;21.25;3.97;;;11.20;99.90;;;;;;4955360;29;20118;-73
2023/05/30 01:03:04;;;;;;;20.35;4.18;;;11.20;99.90;;;;;;4955748;29;20038;-72
2023/05/30 01:05:31;;;;;;;24.95;4.68;;;11.20;99.90;;;;;;4951443;29;20027;-73
2023/05/30 01:07:56;;;;;;;18.52;3.85;;;11.20;99.90;;;;;;4955859;28;20035;-72
2023/05/30 01:10:23;;;;;;;17.30;4.57;;;11.20;99.90;;;;;;4955780;28;20020;-73
2023/05/30 01:13:05;;;;;;;16.52;3.67;;;11.20;99.90;;;;;;4955653;28;20106;-72
2023/05/30 01:15:41;;;;;;;25.65;4.75;;;11.20;99.90;;;;;;4955479;29;20065;-73
2023/05/30 01:18:16;;;;;;;21.75;4.10;;;11.20;99.90;;;;;;4955513;28;20035;-72
2023/05/30 01:20:45;;;;;;;18.80;4.13;;;11.20;99.90;;;;;;4954853;28;20090;-73
2023/05/30 01:23:14;;;;;;;21.73;4.20;;;11.10;99.90;;;;;;4955625;28;20114;-72
2023/05/30 01:26:18;;;;;;;23.20;4.18;;;11.10;99.90;;;;;;4954958;28;20023;-72
2023/05/30 01:28:46;;;;;;;17.92;4.78;;;11.10;99.90;;;;;;4951099;29;20023;-73
2023/05/30 01:31:12;;;;;;;19.08;4.32;;;11.00;99.90;;;;;;4955265;28;20050;-72
2023/05/30 01:33:39;;;;;;;13.52;4.40;;;11.00;99.90;;;;;;4955343;28;20054;-72
2023/05/30 01:36:05;;;;;;;19.60;4.38;;;11.00;99.90;;;;;;4951851;29;20059;-72
2023/05/30 01:38:30;;;;;;;19.33;4.40;;;11.00;99.90;;;;;;4948659;28;20530;-72
2023/05/30 01:40:59;;;;;;;16.00;4.25;;;11.00;99.90;;;;;;4956362;29;20130;-73
2023/05/30 01:43:37;;;;;;;13.82;3.80;;;11.00;99.90;;;;;;4955863;29;20039;-73
2023/05/30 01:46:42;;;;;;;21.60;4.70;;;11.00;99.90;;;;;;4955875;28;20023;-73
2023/05/30 01:49:18;;;;;;;18.17;4.97;;;11.00;99.90;;;;;;4950832;29;20110;-73
2023/05/30 01:51:49;;;;;;;21.50;4.70;;;11.00;99.90;;;;;;4956462;29;20024;-73
2023/05/30 01:54:17;;;;;;;17.20;4.38;;;10.90;99.90;;;;;;4956075;28;20093;-73
2023/05/30 01:56:46;;;;;;;21.13;4.85;;;10.90;99.90;;;;;;4956188;28;20059;-72
2023/05/30 01:59:14;;;;;;;18.52;4.65;;;10.90;99.90;;;;;;4955874;28;20110;-73
2023/05/30 02:01:41;;;;;;;19.48;5.03;;;10.80;99.90;;;;;;4956194;29;20640;-73
2023/05/30 02:04:06;;;;;;;19.45;4.22;;;10.80;99.90;;;;;;4952009;28;20390;-73
2023/05/30 02:06:32;;;;;;;21.52;5.07;;;10.80;99.90;;;;;;4950579;29;20015;-73
2023/05/30 02:08:58;;;;;;;19.23;4.65;;;10.80;99.90;;;;;;4955102;29;20078;-73
2023/05/30 02:11:23;;;;;;;16.45;4.63;;;10.80;99.90;;;;;;4954729;28;20075;-73
2023/05/30 02:13:50;;;;;;;20.85;5.53;;;10.80;99.90;;;;;;4943205;29;20023;-72
2023/05/30 02:16:18;;;;;;;19.85;4.63;;;10.70;99.90;;;;;;4954784;29;20119;-72
2023/05/30 02:18:44;;;;;;;17.65;4.55;;;10.70;99.90;;;;;;4955665;28;20051;-72
2023/05/30 02:21:10;;;;;;;18.95;5.22;;;10.60;99.90;;;;;;4955449;29;20055;-73
2023/05/30 02:23:36;;;;;;;22.77;4.80;;;10.60;99.90;;;;;;4951543;28;20057;-72
2023/05/30 02:26:02;;;;;;;19.42;4.90;;;10.70;99.90;;;;;;4955378;28;20471;-72
2023/05/30 02:28:28;;;;;;;18.42;4.68;;;10.60;99.90;;;;;;4953293;29;20498;-73
2023/05/30 02:30:53;;;;;;;15.10;4.80;;;10.60;99.90;;;;;;4953928;28;20098;-72
2023/05/30 02:33:19;;;;;;;16.95;5.18;;;10.60;99.90;;;;;;4949473;29;20031;-72
2023/05/30 02:35:44;;;;;;;21.48;5.25;;;10.60;99.90;;;;;;4953960;29;20031;-73
2023/05/30 02:38:10;;;;;;;19.30;5.05;;;10.60;99.90;;;;;;4949249;28;20024;-73
2023/05/30 02:40:35;;;;;;;17.80;5.20;;;10.60;99.90;;;;;;4953323;29;20118;-72
2023/05/30 02:43:01;;;;;;;23.30;5.15;;;10.60;99.90;;;;;;4943620;29;20042;-72
2023/05/30 02:45:27;;;;;;;23.92;5.32;;;10.60;99.90;;;;;;4950588;28;20031;-72
2023/05/30 02:47:52;;;;;;;20.75;5.35;;;10.60;99.90;;;;;;4953348;28;20030;-72
2023/05/30 02:50:18;;;;;;;24.23;5.60;;;10.60;99.90;;;;;;4950233;29;20064;-72
2023/05/30 02:52:43;;;;;;;19.17;5.03;;;10.60;99.90;;;;;;4950054;29;20707;-73
2023/05/30 02:55:09;;;;;;;20.08;5.22;;;10.60;99.90;;;;;;4952203;29;20039;-72
2023/05/30 02:57:35;;;;;;;16.38;5.32;;;10.70;99.90;;;;;;4949401;29;20055;-73
2023/05/30 03:00:01;;;;;;;22.23;5.22;;;10.70;99.90;;;;;;4952893;29;20032;-73
2023/05/30 03:02:27;;;;;;;22.52;5.75;;;10.70;99.90;;;;;;4949901;28;20641;-73
2023/05/30 03:04:52;;;;;;;19.20;5.18;;;10.80;99.90;;;;;;4942192;28;20028;-73
2023/05/30 03:07:18;;;;;;;25.38;5.68;;;10.80;99.90;;;;;;4953191;29;20028;-73
2023/05/30 03:09:45;;;;;;;21.60;5.25;;;10.80;99.90;;;;;;4945833;28;20019;-73
2023/05/30 03:12:10;;;;;;;17.85;5.63;;;10.80;99.90;;;;;;4940892;28;20037;-72
2023/05/30 03:14:36;;;;;;;22.95;6.03;;;10.80;99.90;;;;;;4943261;28;20024;-72
2023/05/30 03:17:03;;;;;;;17.33;5.43;;;10.80;99.90;;;;;;4949194;29;20027;-73
2023/05/30 03:19:29;;;;;;;19.05;5.60;;;10.90;99.90;;;;;;4953004;28;20121;-73
2023/05/30 03:21:55;;;;;;;18.67;5.55;;;10.90;99.90;;;;;;4950896;28;20035;-72
2023/05/30 03:24:21;;;;;;;22.90;5.80;;;10.90;99.90;;;;;;4953172;28;20035;-73
2023/05/30 03:26:46;;;;;;;17.35;5.18;;;10.90;99.90;;;;;;4953023;29;20038;-73
2023/05/30 03:29:12;;;;;;;22.42;5.93;;;11.00;99.90;;;;;;4951733;28;20082;-73
2023/05/30 03:31:38;;;;;;;22.20;5.50;;;11.00;99.90;;;;;;4953637;29;20030;-73
2023/05/30 03:34:04;;;;;;;22.23;6.20;;;11.10;99.90;;;;;;4953721;29;20031;-72
2023/05/30 03:36:29;;;;;;;16.20;5.00;;;11.10;99.90;;;;;;4953539;29;20110;-72
2023/05/30 03:38:56;;;;;;;21.90;5.13;;;11.10;99.90;;;;;;4954122;28;20559;-72
2023/05/30 03:41:22;;;;;;;22.85;5.30;;;11.20;99.90;;;;;;4948552;29;20547;-73
2023/05/30 03:43:48;;;;;;;20.55;5.00;;;11.20;99.90;;;;;;4945006;29;20027;-73
2023/05/30 03:46:16;;;;;;;17.77;5.22;;;11.20;99.90;;;;;;4956165;29;20023;-73
2023/05/30 03:48:45;;;;;;;15.68;5.15;;;11.30;99.90;;;;;;4953079;28;20083;-73
2023/05/30 03:51:12;;;;;;;17.90;4.82;;;11.30;99.90;;;;;;4951837;28;20030;-73
2023/05/30 03:53:37;;;;;;;16.60;4.53;;;11.40;99.90;;;;;;4955998;29;20478;-73
2023/05/30 03:56:04;;;;;;;13.75;5.15;;;11.40;99.90;;;;;;4956485;28;20031;-73
2023/05/30 03:58:29;;;;;;;16.70;4.40;;;11.50;99.90;;;;;;4957271;29;20035;-73
2023/05/30 04:00:55;;;;;;;16.83;5.00;;;11.50;99.90;;;;;;4956595;29;20487;-73
2023/05/30 04:03:20;;;;;;;18.33;5.22;;;11.60;99.90;;;;;;4953392;28;20058;-73
2023/05/30 04:05:47;;;;;;;12.05;4.90;;;11.60;99.90;;;;;;4955264;29;20023;-74
2023/05/30 04:08:13;;;;;;;41.13;18.55;;;11.60;99.90;;;;;;4951513;29;20106;-73
2023/05/30 04:10:39;;;;;;;16.38;5.45;;;11.60;99.90;;;;;;4956849;29;20051;-73
2023/05/30 04:13:05;;;;;;;15.77;5.10;;;11.70;99.90;;;;;;4957412;29;20042;-73
2023/05/30 04:15:31;;;;;;;13.43;5.20;;;11.70;99.90;;;;;;4955601;29;20028;-73
2023/05/30 04:17:57;;;;;;;13.43;4.95;;;11.70;99.90;;;;;;4944830;29;20110;-73
2023/05/30 04:20:24;;;;;;;14.80;5.00;;;11.70;99.90;;;;;;4953145;28;20032;-72
2023/05/30 04:22:50;;;;;;;21.75;5.88;;;11.70;99.90;;;;;;4957389;28;20401;-73
2023/05/30 04:25:17;;;;;;;14.25;5.07;;;11.70;99.90;;;;;;4954383;28;20090;-72
2023/05/30 04:27:43;;;;;;;14.38;5.43;;;11.70;99.90;;;;;;4955549;29;20034;-73
2023/05/30 04:30:10;;;;;;;15.85;5.22;;;11.70;99.90;;;;;;4956352;28;20027;-72
2023/05/30 04:32:36;;;;;;;15.70;5.35;;;11.80;99.90;;;;;;4946009;29;20040;-73
2023/05/30 04:35:05;;;;;;;20.25;5.32;;;11.80;99.90;;;;;;4953774;29;20026;-72
2023/05/30 04:37:33;;;;;;;21.65;5.78;;;11.80;99.90;;;;;;4938724;29;20083;-72
2023/05/30 04:39:59;;;;;;;18.83;5.25;;;11.70;99.90;;;;;;4956252;29;20051;-72
2023/05/30 04:42:26;;;;;;;15.57;5.65;;;11.80;99.90;;;;;;4956052;28;20531;-72
2023/05/30 04:44:53;;;;;;;17.95;5.35;;;11.80;99.90;;;;;;4955497;29;20102;-72
2023/05/30 04:47:21;;;;;;;17.38;5.20;;;11.80;99.90;;;;;;4956327;29;20059;-72
2023/05/30 04:49:47;;;;;;;19.35;5.65;;;11.80;99.90;;;;;;4954447;29;20054;-72
2023/05/30 04:52:12;;;;;;;20.48;5.53;;;11.90;99.90;;;;;;4952762;28;20059;-74
2023/05/30 04:54:38;;;;;;;18.48;5.68;;;11.90;99.90;;;;;;4955692;28;20494;-73
2023/05/30 04:57:04;;;;;;;17.65;5.50;;;11.90;99.90;;;;;;4955605;29;20019;-72
2023/05/30 04:59:30;;;;;;;15.18;5.35;;;11.90;99.90;;;;;;4949583;29;20375;-73
2023/05/30 05:01:56;;;;;;;14.65;4.97;;;11.90;99.90;;;;;;4953960;29;20034;-73
2023/05/30 05:04:22;;;;;;;16.30;5.82;;;11.90;99.90;;;;;;4951516;28;20035;-73
2023/05/30 05:06:47;;;;;;;18.92;5.47;;;11.90;99.90;;;;;;4957746;29;20206;-72
2023/05/30 05:09:13;;;;;;;21.02;5.28;;;11.90;99.90;;;;;;4966503;28;20023;-73
2023/05/30 05:11:39;;;;;;;13.45;5.97;;;12.00;99.90;;;;;;4963551;29;20123;-73
2023/05/30 05:14:05;;;;;;;16.60;5.65;;;12.00;99.90;;;;;;4951501;28;20035;-72
2023/05/30 05:16:30;;;;;;;11.60;5.20;;;12.10;99.90;;;;;;4948649;28;20036;-72
2023/05/30 05:18:56;;;;;;;16.48;4.88;;;12.10;99.90;;;;;;4985498;28;20102;-72
2023/05/30 05:21:21;;;;;;;14.45;4.50;;;12.20;99.90;;;;;;4951754;28;20098;-72
2023/05/30 05:23:47;;;;;;;18.85;5.20;;;12.20;99.90;;;;;;4952655;29;20027;-72
2023/05/30 05:26:13;;;;;;;14.93;5.03;;;12.30;99.90;;;;;;4955018;29;20082;-72
2023/05/30 05:28:39;;;;;;;12.32;4.25;;;12.30;99.90;;;;;;4953577;28;20031;-73
2023/05/30 05:31:04;;;;;;;13.18;4.93;;;12.40;99.90;;;;;;4951429;29;20061;-72
2023/05/30 05:33:30;;;;;;;10.82;4.47;;;12.40;99.90;;;;;;4954490;28;20135;-73
2023/05/30 05:35:55;;;;;;;19.15;4.70;;;12.40;99.90;;;;;;4954437;29;20027;-73
2023/05/30 05:38:21;;;;;;;17.30;4.70;;;12.50;99.90;;;;;;4946028;29;20082;-72
2023/05/30 05:40:47;;;;;;;12.02;4.10;;;12.50;99.90;;;;;;4954015;29;20118;-72
2023/05/30 05:43:12;;;;;;;14.70;4.50;;;12.60;99.90;;;;;;4953543;28;20019;-72
2023/05/30 05:45:38;;;;;;;12.95;4.75;;;12.60;99.90;;;;;;4947898;28;20086;-71
2023/05/30 05:48:04;;;;;;;16.05;4.97;;;12.60;99.90;;;;;;4954903;29;20031;-72
2023/05/30 05:50:30;;;;;;;15.05;4.70;;;12.70;99.90;;;;;;4951987;28;20023;-72
2023/05/30 05:52:56;;;;;;;16.92;4.50;;;12.70;99.90;;;;;;4953907;28;20402;-72
2023/05/30 05:55:22;;;;;;;15.48;4.55;;;12.70;99.90;;;;;;4954114;29;20039;-73
2023/05/30 05:57:47;;;;;;;13.68;4.32;;;12.80;99.90;;;;;;4955142;29;20027;-71
2023/05/30 06:00:13;;;;;;;12.95;4.32;;;12.90;99.90;;;;;;4945159;29;20054;-72
2023/05/30 06:02:39;;;;;;;18.17;4.25;;;12.90;99.90;;;;;;4949795;29;20525;-71
2023/05/30 06:05:06;;;;;;;15.55;4.35;;;13.00;99.90;;;;;;4953582;28;20034;-72
2023/05/30 06:07:32;;;;;;;14.73;5.07;;;13.10;99.90;;;;;;4951011;28;20019;-72
2023/05/30 06:09:58;;;;;;;15.40;4.85;;;13.10;99.90;;;;;;4953268;28;20027;-74
2023/05/30 06:12:23;;;;;;;12.73;4.35;;;13.20;99.90;;;;;;4948120;28;20016;-73
2023/05/30 06:14:49;;;;;;;12.73;4.10;;;13.30;99.90;;;;;;4947536;29;20574;-72
2023/05/30 06:17:15;;;;;;;16.80;4.65;;;13.30;99.90;;;;;;4945353;29;20035;-73
2023/05/30 06:19:40;;;;;;;15.52;4.80;;;13.40;99.90;;;;;;4942042;29;20040;-72
2023/05/30 06:22:07;;;;;;;13.75;4.28;;;13.40;99.90;;;;;;4941325;29;20064;-73
2023/05/30 06:24:33;;;;;;;14.15;4.43;;;13.50;99.90;;;;;;4940885;29;20023;-72
2023/05/30 06:26:59;;;;;;;15.68;4.72;;;13.50;99.90;;;;;;4946380;28;20042;-73
2023/05/30 06:29:25;;;;;;;13.20;4.32;;;13.50;99.90;;;;;;4945226;28;20032;-73
2023/05/30 06:31:50;;;;;;;13.00;4.32;;;13.60;99.90;;;;;;4941403;29;20016;-72
2023/05/30 06:34:21;;;;;;;13.60;4.95;;;13.70;99.90;;;;;;4942827;29;20051;-73
2023/05/30 06:36:46;;;;;;;14.43;4.55;;;13.80;99.90;;;;;;4954404;28;20047;-72
2023/05/30 06:39:15;;;;;;;16.08;4.70;;;13.90;99.90;;;;;;4954326;29;20055;-73
2023/05/30 06:41:43;;;;;;;16.17;4.93;;;14.00;99.90;;;;;;4949555;28;20059;-72
2023/05/30 06:44:09;;;;;;;17.42;4.38;;;14.10;99.90;;;;;;4946357;29;20446;-72
2023/05/30 06:46:35;;;;;;;17.77;4.65;;;14.20;99.90;;;;;;4952208;28;20023;-73
2023/05/30 06:49:00;;;;;;;17.40;4.32;;;14.20;99.90;;;;;;4952756;28;20101;-72
2023/05/30 06:51:26;;;;;;;17.50;4.60;;;14.20;99.90;;;;;;4951996;28;20019;-72
2023/05/30 06:53:52;;;;;;;14.27;4.57;;;14.30;99.90;;;;;;4953979;29;20507;-72
2023/05/30 06:56:17;;;;;;;18.05;5.10;;;14.20;99.90;;;;;;4949711;29;20141;-72
2023/05/30 06:58:43;;;;;;;13.30;4.60;;;14.20;99.90;;;;;;4953338;29;20336;-72
2023/05/30 07:01:09;;;;;;;15.07;4.70;;;14.20;99.90;;;;;;4942795;28;20055;-72
2023/05/30 07:03:35;;;;;;;17.73;5.13;;;14.20;99.90;;;;;;4952273;29;20481;-73
2023/05/30 07:06:02;;;;;;;15.90;4.82;;;14.20;99.90;;;;;;4948357;29;20030;-73
2023/05/30 07:08:27;;;;;;;16.00;5.20;;;14.20;99.90;;;;;;4948589;28;20498;-72
2023/05/30 07:10:53;;;;;;;15.05;4.75;;;14.30;99.90;;;;;;4952444;29;20024;-72
2023/05/30 07:13:19;;;;;;;12.27;4.75;;;14.40;99.90;;;;;;4953226;29;20046;-71
2023/05/30 07:15:44;;;;;;;14.65;4.97;;;14.50;99.90;;;;;;4948748;29;20108;-71
2023/05/30 07:18:10;;;;;;;15.73;4.32;;;14.60;99.90;;;;;;4952682;28;20427;-73
2023/05/30 07:20:36;;;;;;;12.68;4.22;;;14.60;99.90;;;;;;4952219;28;20034;-74
2023/05/30 07:23:01;;;;;;;12.63;4.38;;;14.70;99.90;;;;;;4950582;29;20449;-74
2023/05/30 07:25:27;;;;;;;16.98;4.10;;;14.80;99.90;;;;;;4944455;29;20035;-73
2023/05/30 07:27:54;;;;;;;19.58;4.43;;;14.90;99.90;;;;;;4949526;29;20023;-73
2023/05/30 07:30:20;;;;;;;14.48;4.47;;;14.90;99.90;;;;;;4950765;28;20031;-73
2023/05/30 07:32:46;;;;;;;21.25;4.65;;;14.80;99.90;;;;;;4944435;29;20029;-73
2023/05/30 07:35:13;;;;;;;14.57;4.22;;;14.90;99.90;;;;;;4948911;29;20035;-72
2023/05/30 07:37:38;;;;;;;11.60;4.45;;;14.90;99.90;;;;;;4944416;29;20035;-73
2023/05/30 07:40:05;;;;;;;17.27;4.18;;;15.00;99.90;;;;;;4940570;28;20054;-72
2023/05/30 07:42:32;;;;;;;12.95;4.60;;;15.20;99.90;;;;;;4937459;29;20069;-73
2023/05/30 07:44:57;;;;;;;17.27;4.65;;;15.30;99.90;;;;;;4946650;29;20027;-74
2023/05/30 07:47:23;;;;;;;14.25;4.90;;;15.50;99.90;;;;;;4951204;29;20031;-73
2023/05/30 07:49:49;;;;;;;15.00;4.45;;;15.70;99.90;;;;;;4950697;29;20031;-73
2023/05/30 07:52:15;;;;;;;14.10;4.40;;;15.70;99.90;;;;;;4950224;29;20027;-73
2023/05/30 07:54:40;;;;;;;14.07;4.63;;;15.60;99.90;;;;;;4948377;29;20110;-74
2023/05/30 07:57:06;;;;;;;18.17;4.90;;;15.70;99.90;;;;;;4951512;29;20103;-73
2023/05/30 07:59:32;;;;;;;14.73;4.60;;;15.80;99.90;;;;;;4947197;29;20403;-73
2023/05/30 08:01:58;;;;;;;12.30;4.32;;;15.90;99.90;;;;;;4953561;28;20028;-72
2023/05/30 08:04:23;;;;;;;20.88;4.82;;;15.90;99.90;;;;;;4947635;29;20123;-73
2023/05/30 08:06:49;;;;;;;17.13;4.57;;;15.80;99.90;;;;;;4937477;29;20467;-73
2023/05/30 08:09:16;;;;;;;15.65;4.35;;;15.80;99.90;;;;;;4947052;29;20028;-73
2023/05/30 08:11:41;;;;;;;15.02;4.15;;;15.90;99.90;;;;;;4953709;28;20059;-73
2023/05/30 08:14:07;;;;;;;16.20;4.47;;;16.00;99.90;;;;;;4953142;29;20055;-73
2023/05/30 08:16:33;;;;;;;15.93;4.72;;;16.00;99.90;;;;;;4944594;28;20439;-72
2023/05/30 08:18:58;;;;;;;16.98;4.80;;;16.00;99.90;;;;;;4948178;29;20054;-73
2023/05/30 08:21:24;;;;;;;16.35;4.65;;;16.10;99.90;;;;;;4951970;28;20046;-73
2023/05/30 08:23:49;;;;;;;14.35;4.45;;;16.10;99.90;;;;;;4947422;28;20019;-74
2023/05/30 08:26:16;;;;;;;19.20;4.65;;;16.20;99.90;;;;;;4952271;29;20024;-73
2023/05/30 08:28:42;;;;;;;13.70;4.97;;;16.30;99.90;;;;;;4947807;28;20058;-73
2023/05/30 08:31:08;;;;;;;17.98;4.95;;;16.50;99.90;;;;;;4955103;28;20098;-73
2023/05/30 08:33:35;;;;;;;17.60;4.82;;;16.60;99.90;;;;;;4944494;29;20179;-72
2023/05/30 08:36:01;;;;;;;14.85;4.72;;;16.60;99.90;;;;;;4951530;29;20038;-73
2023/05/30 08:38:26;;;;;;;19.58;5.00;;;16.60;99.90;;;;;;4951245;29;20358;-73
2023/05/30 08:40:53;;;;;;;15.88;5.20;;;16.60;99.90;;;;;;4949535;29;20142;-73
2023/05/30 08:43:19;;;;;;;16.77;4.50;;;16.60;99.90;;;;;;4953668;29;20054;-73
2023/05/30 08:45:46;;;;;;;19.38;5.40;;;16.60;99.90;;;;;;4954949;28;20471;-73
2023/05/30 08:48:16;;;;;;;12.70;4.85;;;16.70;99.90;;;;;;4955670;29;20061;-73
2023/05/30 08:50:43;;;;;;;16.35;5.03;;;16.80;99.90;;;;;;4955710;29;20027;-73
2023/05/30 08:53:13;;;;;;;12.38;4.25;;;16.90;99.90;;;;;;4951617;28;20043;-73
2023/05/30 08:55:57;;;;;;;15.55;4.68;;;17.10;99.90;;;;;;4956578;28;20031;-73
2023/05/30 08:58:28;;;;;;;15.93;4.45;;;17.10;99.90;;;;;;4953697;29;20198;-73
2023/05/30 09:00:54;;;;;;;15.20;4.80;;;17.30;99.90;;;;;;4945260;29;20019;-72
2023/05/30 09:03:22;;;;;;;12.27;4.15;;;17.40;99.90;;;;;;4953840;29;20121;-73
2023/05/30 09:05:48;;;;;;;13.85;4.82;;;17.50;99.90;;;;;;4952313;29;20012;-74
2023/05/30 09:08:14;;;;;;;14.43;4.80;;;17.60;99.90;;;;;;4950922;29;20123;-73
2023/05/30 09:10:48;;;;;;;10.70;4.30;;;17.60;99.90;;;;;;4956797;28;20114;-73
2023/05/30 09:13:15;;;;;;;18.00;4.70;;;17.70;99.90;;;;;;4952634;28;20036;-73
2023/05/30 09:15:40;;;;;;;17.98;4.82;;;17.90;99.90;;;;;;4955960;28;20043;-72
2023/05/30 09:18:06;;;;;;;14.18;5.25;;;18.00;99.90;;;;;;4955842;29;20070;-73
2023/05/30 09:20:32;;;;;;;20.30;4.88;;;18.20;99.90;;;;;;4943852;29;20032;-72
2023/05/30 09:22:58;;;;;;;14.63;4.50;;;18.20;99.90;;;;;;4947911;29;20031;-73
2023/05/30 09:25:24;;;;;;;16.02;4.60;;;18.10;99.90;;;;;;4942179;29;20051;-73
2023/05/30 09:27:51;;;;;;;16.73;4.72;;;18.00;99.90;;;;;;4953097;29;20038;-73
2023/05/30 09:30:18;;;;;;;18.58;4.50;;;18.00;99.90;;;;;;4946902;29;20102;-72
2023/05/30 09:33:01;;;;;;;15.07;4.70;;;18.20;99.90;;;;;;4951927;29;20039;-73
2023/05/30 09:35:26;;;;;;;16.25;4.68;;;18.30;99.90;;;;;;4950201;28;20031;-73
2023/05/30 09:37:52;;;;;;;16.65;4.68;;;18.40;99.90;;;;;;4952701;29;20035;-74
2023/05/30 09:40:19;;;;;;;16.20;5.13;;;18.50;99.90;;;;;;4956314;28;20051;-73
2023/05/30 09:42:47;;;;;;;15.05;4.72;;;18.70;99.90;;;;;;4942218;28;20015;-73
2023/05/30 09:45:23;;;;;;;20.75;4.80;;;18.60;99.90;;;;;;4942839;28;20031;-73
2023/05/30 09:47:51;;;;;;;22.30;5.13;;;18.40;99.90;;;;;;4952255;29;20042;-73
2023/05/30 09:50:22;;;;;;;13.95;4.65;;;18.40;99.90;;;;;;4955805;28;20031;-73
2023/05/30 09:52:51;;;;;;;15.32;4.40;;;18.50;99.90;;;;;;4955320;28;20023;-73
2023/05/30 09:55:19;;;;;;;11.57;4.32;;;18.50;99.90;;;;;;4942524;29;20027;-73
2023/05/30 09:57:49;;;;;;;12.23;4.97;;;18.60;99.90;;;;;;4954829;28;20031;-73
2023/05/30 10:00:21;;;;;;;15.70;5.20;;;18.70;99.90;;;;;;4953252;29;20047;-73
2023/05/30 10:02:54;;;;;;;11.38;4.43;;;18.80;99.90;;;;;;4951919;29;20074;-75
2023/05/30 10:05:22;;;;;;;12.70;4.07;;;19.00;99.70;;;;;;4950335;29;20399;-73
2023/05/30 10:07:49;;;;;;;14.43;4.15;;;19.00;99.90;;;;;;4951697;28;20102;-73
2023/05/30 10:10:16;;;;;;;15.88;4.75;;;19.20;99.80;;;;;;4945027;29;20039;-73
2023/05/30 10:12:42;;;;;;;12.32;4.88;;;19.50;99.00;;;;;;4947995;28;20475;-73
2023/05/30 10:15:09;;;;;;;14.68;4.78;;;19.40;98.20;;;;;;4944510;29;20036;-73
2023/05/30 10:17:38;;;;;;;13.23;4.95;;;19.20;98.30;;;;;;4953805;28;20047;-73
2023/05/30 10:20:08;;;;;;;12.32;4.50;;;19.10;98.50;;;;;;4954559;28;20418;-73
2023/05/30 10:22:45;;;;;;;11.23;4.55;;;19.00;98.90;;;;;;4954352;29;20051;-73
2023/05/30 10:25:12;;;;;;;9.43;4.47;;;18.90;99.90;;;;;;4952515;28;20138;-72
2023/05/30 10:27:56;;;;;;;11.52;4.75;;;18.90;99.50;;;;;;4951852;28;20024;-73
2023/05/30 10:30:23;;;;;;;14.30;4.70;;;19.00;99.90;;;;;;4952899;29;20031;-73
2023/05/30 10:32:59;;;;;;;15.25;4.75;;;19.10;99.90;;;;;;4949620;29;20036;-73
2023/05/30 10:35:25;;;;;;;13.18;4.78;;;19.30;99.80;;;;;;4947968;28;20044;-74
2023/05/30 10:37:52;;;;;;;15.45;5.00;;;19.50;99.40;;;;;;4946711;29;20480;-73
2023/05/30 10:40:18;;;;;;;12.45;4.60;;;19.60;99.10;;;;;;4948943;29;20067;-73
2023/05/30 10:43:23;;;;;;;14.13;5.13;;;19.50;99.30;;;;;;4954919;29;20031;-74
2023/05/30 10:46:01;;;;;;;14.57;5.25;;;19.40;99.90;;;;;;4961877;28;20090;-74
2023/05/30 10:49:01;;;;;;;12.45;4.95;;;19.30;99.90;;;;;;4952441;29;20023;-73
2023/05/30 10:51:26;;;;;;;11.52;4.45;;;19.30;99.90;;;;;;4957063;28;20481;-73
2023/05/30 10:53:52;;;;;;;12.60;5.15;;;19.00;99.90;;;;;;4954267;28;20028;-73
2023/05/30 10:56:43;;;;;;;9.60;4.63;;;18.90;99.90;;;;;;4952624;29;20073;-73
2023/05/30 10:59:17;;;;;;;10.10;4.93;;;18.80;99.90;;;;;;4946211;29;20027;-74
2023/05/30 11:02:00;;;;;;;9.13;4.20;;;18.90;99.90;;;;;;4952332;29;20043;-73
2023/05/30 11:04:38;;;;;;;8.68;4.20;;;19.10;99.90;;;;;;4944273;28;20042;-73
2023/05/30 11:07:05;;;;;;;9.75;4.03;;;19.10;99.90;;;;;;4951960;29;20035;-72
2023/05/30 11:09:31;;;;;;;12.70;4.50;;;19.10;99.90;;;;;;4944038;29;20078;-73
2023/05/30 11:11:59;;;;;;;10.70;4.50;;;19.10;99.90;;;;;;4943276;29;20078;-74
2023/05/30 11:14:30;;;;;;;9.93;4.60;;;19.00;99.90;;;;;;4954849;28;20362;-74
2023/05/30 11:17:12;;;;;;;12.15;5.00;;;18.80;99.90;;;;;;4952192;28;20379;-74
2023/05/30 11:19:43;;;;;;;10.82;4.63;;;18.60;99.90;;;;;;4953023;29;20031;-73
2023/05/30 11:22:17;;;;;;;9.20;4.68;;;18.50;99.90;;;;;;4953459;28;20490;-72
2023/05/30 11:24:44;;;;;;;13.35;5.38;;;18.30;99.90;;;;;;4940326;29;20045;-74
2023/05/30 11:27:13;;;;;;;9.43;5.10;;;18.20;99.90;;;;;;4951904;28;20045;-73
2023/05/30 11:29:49;;;;;;;10.82;5.60;;;18.00;99.90;;;;;;4943093;29;20042;-73
2023/05/30 11:32:22;;;;;;;12.18;5.93;;;18.00;99.90;;;;;;4954460;28;20031;-73
2023/05/30 11:35:03;;;;;;;8.45;5.70;;;17.90;99.90;;;;;;4952803;28;20378;-74
2023/05/30 11:37:35;;;;;;;8.60;5.05;;;17.80;99.90;;;;;;4954820;28;20343;-74
2023/05/30 11:40:01;;;;;;;7.90;4.47;;;17.80;99.90;;;;;;4951899;29;20134;-73
2023/05/30 11:42:27;;;;;;;6.60;4.05;;;17.90;99.90;;;;;;4954589;29;20107;-74
2023/05/30 11:44:53;;;;;;;6.97;4.35;;;17.90;99.90;;;;;;4949820;29;20016;-73
2023/05/30 11:47:19;;;;;;;8.70;4.07;;;17.80;99.90;;;;;;4946734;29;20044;-74
2023/05/30 11:49:48;;;;;;;6.30;4.18;;;17.70;99.90;;;;;;4954039;28;20392;-73
2023/05/30 11:52:14;;;;;;;6.40;4.00;;;17.70;99.90;;;;;;4953753;29;20031;-73
2023/05/30 11:54:40;;;;;;;11.43;3.97;;;17.60;99.90;;;;;;4949615;28;20062;-73
2023/05/30 11:57:07;;;;;;;7.93;4.00;;;17.70;99.90;;;;;;4953735;29;20047;-74
2023/05/30 11:59:33;;;;;;;8.50;4.38;;;17.60;99.90;;;;;;4953931;28;20134;-74
2023/05/30 12:02:01;;;;;;;9.20;4.50;;;17.50;99.90;;;;;;4953685;29;20051;-73
2023/05/30 12:04:31;;;;;;;7.68;4.38;;;17.50;99.90;;;;;;4947087;28;20074;-74
2023/05/30 12:07:02;;;;;;;6.45;4.47;;;17.50;99.90;;;;;;4952006;28;20374;-74
2023/05/30 12:09:39;;;;;;;5.75;4.25;;;17.50;99.90;;;;;;4953721;29;20100;-74
2023/05/30 12:12:09;;;;;;;9.13;4.20;;;17.40;99.90;;;;;;4956457;28;20035;-74
2023/05/30 12:14:55;;;;;;;8.68;4.55;;;17.10;99.90;;;;;;4956938;29;20537;-74
2023/05/30 12:17:23;;;;;;;5.78;4.10;;;17.00;99.90;;;;;;4955863;29;20031;-74
2023/05/30 12:20:00;;;;;;;6.63;3.75;;;16.90;99.90;;;;;;4956197;28;20571;-73
2023/05/30 12:22:32;;;;;;;6.93;4.03;;;16.90;99.90;;;;;;4954338;28;20031;-73
2023/05/30 12:24:58;;;;;;;5.10;3.70;;;17.00;99.90;;;;;;4954517;29;20031;-73
2023/05/30 12:27:25;;;;;;;5.38;3.47;;;17.00;99.90;;;;;;4955924;29;20078;-73
2023/05/30 12:29:51;;;;;;;7.50;3.78;;;16.90;99.90;;;;;;4955847;28;20027;-73
2023/05/30 12:32:25;;;;;;;6.82;3.97;;;16.80;99.90;;;;;;4955699;28;20134;-73
2023/05/30 12:34:52;;;;;;;6.43;4.25;;;16.80;99.90;;;;;;4950435;29;20043;-73
2023/05/30 12:37:19;;;;;;;8.35;4.13;;;16.70;99.90;;;;;;4938773;29;20402;-73
2023/05/30 12:39:58;;;;;;;7.60;4.20;;;16.70;99.90;;;;;;4943118;29;20070;-74
2023/05/30 12:42:27;;;;;;;4.18;3.78;;;16.70;99.90;;;;;;4955787;28;20471;-73